Low temp

Not for real navigation. The accuracy of this data is not assured See disclaimer for more information



ICAO NAME COUNTRY WIND Kt GUST Kt VIS m TEMP/DEW C BARO METAR
NZSP Amundsen-Scott South Pole Stat Antarctica 11 0 1600 -40/0 28.54 NZSP 251150Z 05011KT 1600 IC BR BKN008 OVC020 M40/ A2854 RMK CLN AIR 03011KT ALL WNDS GRID SDP/HDN
CXRB 8 0 9999 -39/-43 29.92 CXRB 251300Z AUTO 36008KT M39/M43 RMK AO1 SOG 01 7002 SLP067 T13861428
CYRB Resolute, N. W. T. Canada 13 0 9999 -38/-43 29.72 CYRB 251300Z 01013KT 15SM IC CAVOK M38/M43 A2972 RMK SLP081
BGSF Sdr Stroemfjord Greenland 8 0 2700 -38/-43 29.68 BGSF 251250Z AUTO 05008KT 2700NDV BR NCD M38/M43 Q1005
CYUS Shepherd Bay, N. W. T. Canada 5 0 9999 -38/-44 29.90 CYUS 251300Z AUTO 21005KT 110V230 ////SM //// BKN060 OVC070 M38/M44 A2990

Show more